x

9440910 - Toke Point, Wa (tokw1) Weather Station

7:18 - Mon 29th May 2017 All times are PDT. -7 hours from GMT.

  • Wind
    3mph, 5mph gusts
  • Sea Temp 56°f
  • Air Temp 51°f
  • Sea Pressure 1019.4mb
  • 9440910 - Toke Point, Wa
  • 9440910 - Toke Point, Wa

More Historic Weather Station data

Upgrade to MSW Pro to gain access to the past 30 days of data for over 8000 Wavebouys and Weather Stations around the globe.

Join Pro

Comparision Forecast

View Surf forecast
   
lun. 05/29 7:18 3 5 mph 1019.4mb 56f 51f
7:12 2 5 mph 1019.3mb 56f 51f
7:06 5 6 mph 1019.4mb 56f 51f
7:00 5 6 mph 1019.4mb 56f 51f
6:54 5 6 mph 1019.4mb 56f 51f
6:48 5 6 mph 1019.4mb 56f 51f
6:42 5 6 mph 1019.4mb 56f 52f
6:36 3 5 mph 1019.5mb 56f 51f
6:30 3 6 mph 1019.5mb 56f 51f
6:24 5 8 mph 1019.6mb 56f 52f
6:18 7 8 mph 1019.6mb 56f 51f
6:12 6 8 mph 1019.5mb 56f 51f
6:06 5 7 mph 1019.5mb 56f 51f
6:00 6 7 mph 1019.4mb 56f 51f
5:54 5 6 mph 1019.4mb 56f 51f
5:48 5 7 mph 1019.4mb 56f 51f
5:42 3 6 mph 1019.4mb 56f 51f
5:36 7 8 mph 1019.3mb 56f 51f
5:30 3 5 mph 1019.3mb 56f 51f
5:24 3 5 mph 1019.4mb 56f 51f
5:18  -  1 mph 1019.4mb 56f 51f
5:12  -  1 mph 1019.5mb 56f 51f
5:06 1 2 mph 1019.6mb 55f 51f
5:00 2 2 mph 1019.6mb 55f 52f
4:54  -  2 mph 1019.6mb 55f 51f
4:48 2 5 mph 1019.6mb 55f 51f
4:42 3 6 mph 1019.7mb 55f 51f
4:36 6 8 mph 1019.7mb 55f 51f
4:30 6 8 mph 1019.7mb 55f 51f
4:24 7 9 mph 1019.7mb 55f 51f
4:18 6 7 mph 1019.8mb 55f 52f
4:12 6 7 mph 1019.9mb 55f 52f
4:06 3 3 mph 1019.9mb 55f 52f
4:00 2 5 mph 1020mb 55f 51f
3:54 5 6 mph 1020mb 55f 52f
3:48 5 6 mph 1020.1mb 56f 52f
3:42 7 8 mph 1020.1mb 56f 51f
3:36 3 6 mph 1020mb 55f 51f
3:30 3 6 mph 1020mb 55f 52f
3:24 5 6 mph 1020mb 55f 51f
3:18 5 6 mph 1020mb 55f 52f
3:12 5 7 mph 1020.1mb 56f 52f
3:06 6 9 mph 1020.1mb 56f 52f
3:00 8 9 mph 1020.1mb 56f 52f
2:54 6 7 mph 1020.1mb 56f 52f
2:48 6 8 mph 1020.1mb 56f 52f
2:42 5 7 mph 1020.1mb 56f 52f
2:36 5 9 mph 1020.1mb 56f 52f
2:30 8 9 mph 1020.1mb 56f 52f
2:24 6 9 mph 1020mb 56f 52f
2:18 6 7 mph 1020mb 56f 52f
2:12 6 10 mph 1020mb 56f 52f
2:06 6 7 mph 1020mb 56f 52f
2:00 5 9 mph 1020mb 56f 52f
1:54 7 10 mph 1020mb 56f 52f
1:48 7 10 mph 1020mb 56f 52f
1:42 8 9 mph 1020mb 56f 52f
1:36 7 8 mph 1020.1mb 56f 52f
1:30 6 8 mph 1020.1mb 56f 52f
1:24 5 8 mph 1020.1mb 56f 52f
1:18 6 7 mph 1020.1mb 56f 52f
1:12 6 7 mph 1020.1mb 56f 52f
1:06 6 6 mph 1020.1mb 56f 52f
1:00 3 6 mph 1020.2mb 56f 52f
12:54 6 7 mph 1020.2mb 56f 52f
12:48 5 7 mph - 56f 52f
12:42 3 6 mph - 56f 52f
12:36 5 6 mph - 56f 52f
12:30 3 7 mph 1020.4mb 56f 52f
12:24 7 9 mph 1020.4mb 56f 52f
12:18 7 9 mph 1020.4mb 56f 52f
12:12 6 9 mph 1020.4mb 56f 52f
12:06 6 7 mph 1020.4mb 56f 52f
12:00 5 6 mph 1020.3mb 56f 52f
dim. 05/28 11:54 5 10 mph 1020.3mb 56f 52f
11:48 9 10 mph 1020.3mb - -
11:42 9 10 mph 1020.3mb - -
11:36 8 9 mph 1020.2mb - -
11:30 7 8 mph 1020.3mb 57f 52f
11:24 5 7 mph 1020.3mb 57f 52f
11:18 3 5 mph 1020.2mb 57f 52f
11:12 6 8 mph 1020.3mb 57f 52f
11:06 6 7 mph 1020.3mb 56f 52f
11:00 5 7 mph 1020.3mb 57f 52f
10:54 7 8 mph 1020.2mb 56f 52f
10:48 6 7 mph 1020.2mb 56f -
10:42 6 8 mph 1020.2mb 57f -
10:36 6 8 mph 1020.2mb 57f -
10:30 6 8 mph 1020.2mb 57f 52f
10:24 6 7 mph 1020.2mb 57f 52f
10:18 5 6 mph 1020.3mb 57f 52f
10:12 6 8 mph 1020.3mb 56f 53f
10:06 7 10 mph 1020.3mb 56f 52f
10:00 7 9 mph 1020.3mb 56f 53f
9:54 6 7 mph 1020.3mb 56f 52f
9:48 6 7 mph 1020.3mb 57f 52f
9:42 5 9 mph 1020.3mb 57f 52f
9:36 8 10 mph 1020.3mb 57f 52f
9:30 7 9 mph 1020.3mb 57f 53f
9:24 7 9 mph 1020.3mb 57f 53f
9:18 3 6 mph 1020.3mb 57f 53f
9:12 5 8 mph 1020.3mb 57f 52f
9:06 8 10 mph 1020.2mb 57f 52f
9:00 6 7 mph 1020.1mb 57f 53f
8:54 2 8 mph 1020.1mb 57f 53f
8:48 6 7 mph 1020.1mb 57f 52f
8:42 7 10 mph 1020.1mb 57f 52f
8:36 8 10 mph 1020.1mb 57f 52f
8:30 8 13 mph 1020.1mb 57f 52f
8:24 10 11 mph 1020mb 57f 52f
8:18 8 11 mph 1020mb 57f 52f
8:12 7 9 mph 1020mb 57f 53f
8:06 8 11 mph 1020mb 57f 53f
8:00 7 10 mph 1020.1mb 57f 53f
7:54 9 11 mph 1020.1mb 57f 53f
7:48 8 10 mph 1020.1mb 56f 53f
7:42 6 10 mph 1020.2mb 56f 53f
7:36 7 11 mph 1020.1mb 56f 53f
7:30 8 9 mph 1020.1mb 56f 53f
7:24 8 8 mph 1020mb 56f 53f
7:18 7 10 mph 1020mb 56f 53f
7:12 8 11 mph 1020mb 56f 53f
7:06 9 11 mph 1019.9mb 56f 53f
7:00 9 10 mph 1020mb 56f 53f
6:54 7 10 mph 1020mb 56f 53f
6:48 8 10 mph 1020mb 56f 53f
6:42 7 10 mph 1020.1mb 56f 53f
6:36 7 8 mph 1020.1mb 56f 53f
6:30 8 9 mph 1020.1mb 56f 53f
6:24 8 10 mph 1020.1mb 56f 53f
6:18 9 11 mph - - -
6:12 7 10 mph 1020.2mb 56f 53f
6:06 9 11 mph 1020.2mb 56f 53f
6:00 8 10 mph 1020.2mb 56f 53f
5:48 10 13 mph 1020.4mb 55f 53f
5:42 9 14 mph 1020.5mb 55f 53f
5:36 8 10 mph 1020.5mb 55f 53f
5:30 8 13 mph 1020.5mb 55f 53f
5:24 10 13 mph 1020.6mb 55f 53f
5:18 9 14 mph 1020.6mb 55f 53f
5:12 10 13 mph 1020.6mb 55f 53f
5:06 9 13 mph 1020.6mb 55f 53f
5:00 9 13 mph 1020.6mb - -
4:54 8 13 mph 1020.6mb 55f 53f
4:48 10 14 mph 1020.6mb 55f 53f
4:42 10 14 mph 1020.7mb 55f 53f
4:36 7 14 mph 1020.6mb 55f 54f
4:30 8 14 mph 1020.6mb 55f 54f
4:24 9 13 mph 1020.6mb 55f 54f
4:18 11 14 mph 1020.6mb 55f 54f
4:12 10 14 mph 1020.6mb 55f 54f
4:00 10 15 mph 1020.6mb 55f 54f
3:48 11 15 mph 1020.6mb 55f 54f
3:42 10 14 mph 1020.5mb 55f 54f
3:36 9 14 mph 1020.5mb 55f 55f
3:30 8 11 mph 1020.6mb 55f 55f
3:24 8 11 mph 1020.5mb 55f 55f
3:18 9 13 mph 1020.6mb 56f 55f
3:12 9 13 mph 1020.6mb 56f 54f
3:06 9 13 mph 1020.6mb 56f 54f
3:00 9 13 mph 1020.7mb 56f 54f
2:54 10 13 mph 1020.7mb 56f 54f
2:48 9 13 mph 1020.7mb 56f -
2:42 10 14 mph 1020.7mb 56f 54f
2:36 9 14 mph 1020.7mb 56f 55f
2:30 9 13 mph 1020.8mb 56f 55f
2:24 8 13 mph 1020.8mb 57f 55f
2:18 8 10 mph 1020.8mb 57f 55f
2:12 9 11 mph 1020.8mb 57f 55f
2:06 9 11 mph 1020.8mb 57f 55f
2:00 9 11 mph 1020.8mb 57f 54f
1:54 9 13 mph 1020.8mb 57f 54f
1:48 9 14 mph 1020.9mb 58f 54f
1:42 10 11 mph 1020.9mb 58f 54f
1:36 10 13 mph 1020.9mb 58f 54f
1:30 9 13 mph 1020.9mb 58f 54f
1:24 9 11 mph 1020.9mb 58f 54f
1:18 9 11 mph 1020.9mb 58f 54f
1:12 8 13 mph 1020.9mb 58f 54f
1:06 10 13 mph 1021mb 58f 54f
1:00 9 11 mph 1021mb 58f 53f
12:54 9 13 mph 1021mb 58f 54f
12:48 9 11 mph 1021mb 58f 54f
12:42 7 13 mph 1021mb 58f 54f
12:36 10 13 mph 1021mb 58f 54f
12:30 9 13 mph 1021.1mb 58f 54f
12:24 10 14 mph 1021.1mb 58f 53f
12:18 8 13 mph 1021mb 58f 54f
12:12 10 13 mph 1021mb 59f 53f
12:06 8 13 mph 1021mb 59f 54f
12:00 10 14 mph 1021mb 59f 54f
11:54 8 11 mph 1021mb 58f 54f
11:48 8 11 mph 1021mb 58f 54f
11:42 9 11 mph 1021mb 58f 53f
11:36 8 11 mph 1021mb 58f 53f
11:30 9 10 mph 1021mb 58f 53f
11:24 7 11 mph 1021mb 58f 54f
11:18 9 11 mph 1020.9mb 58f 53f
11:12 8 10 mph 1021mb 58f 53f
11:06 7 9 mph 1020.9mb 58f 53f
11:00 8 9 mph 1020.9mb 58f 53f
10:54 8 10 mph 1020.9mb 58f 53f
10:48 6 9 mph 1020.9mb 58f 54f
10:42 7 9 mph 1020.9mb 58f 54f
10:36 2 5 mph 1021mb 58f 55f
10:30 1 2 mph 1020.9mb 58f 55f
10:24  -  2 mph 1020.9mb 58f 56f
10:18  -  1 mph 1020.9mb 56f 55f
10:12  -  2 mph 1020.8mb 55f 55f
10:06  -  1 mph 1020.8mb 54f 54f
10:00  -  2 mph 1020.8mb 54f 54f
9:54 2 3 mph 1020.8mb 54f 54f
9:48 1 2 mph 1020.8mb 54f 54f
9:42 2 3 mph 1020.8mb 54f 53f
9:36 1 3 mph 1020.9mb 54f 53f
9:30 1 3 mph 1020.8mb 54f 53f
9:24 2 3 mph 1020.8mb 54f 53f
9:18  -  2 mph 1020.9mb 54f 53f
9:12  -  2 mph 1020.9mb 55f 53f
9:06 3 5 mph 1021mb 56f 52f
9:00 3 5 mph 1021mb 56f 52f
8:54 2 5 mph 1021mb 56f 52f
8:48 3 6 mph 1021.1mb 56f 52f
8:42 5 6 mph 1021.1mb 56f 52f
8:36 2 3 mph 1021.1mb 56f 52f
8:30  -  1 mph 1021.1mb 56f 52f
8:24  -  1 mph 1021.1mb 56f 52f
8:18  -  2 mph 1021.1mb 56f 52f
8:12 1 2 mph 1021mb 56f 52f
8:06  -  3 mph 1021.1mb 56f 52f
8:00 5 6 mph 1021mb 56f 51f
7:54 3 6 mph 1021.1mb 56f 52f
7:48 1 5 mph 1021.1mb 56f 52f
7:42 3 5 mph 1021mb 56f 51f
7:36 2 3 mph 1021.1mb 56f 51f
7:30 3 3 mph 1021.1mb 56f 51f
7:24 2 5 mph 1021mb 56f 51f
7:18 3 6 mph 1021mb 56f 51f
7:12  -  1 mph 1021mb 55f 51f
7:06 2 5 mph 1021mb 55f 51f
7:00 3 5 mph 1021mb 55f 51f
6:54 3 5 mph 1021mb 55f 51f
6:48 2 3 mph 1020.9mb 55f 51f
6:42 3 3 mph 1020.9mb 55f 51f
6:36 3 5 mph 1020.8mb 56f 51f
6:30 2 3 mph 1020.8mb 56f 51f
6:24 3 3 mph 1020.7mb 55f 51f
6:18 1 5 mph 1020.7mb 56f 51f
6:12 1 3 mph 1020.7mb 55f 51f
6:06 3 5 mph 1020.7mb 55f 51f
6:00 2 3 mph 1020.6mb 55f 51f
5:54 1 2 mph 1020.6mb 55f 51f
5:48 2 2 mph 1020.6mb 54f 51f
5:42  -  5 mph 1020.6mb 55f 51f
5:36 3 5 mph 1020.7mb 55f 51f
5:30 5 6 mph 1020.7mb 55f 51f
5:24 3 5 mph 1020.7mb 54f 51f
5:18 2 3 mph 1020.7mb 54f 52f
5:12 3 5 mph 1020.6mb 54f 51f
5:06 3 6 mph 1020.6mb 54f 51f
5:00 2 3 mph 1020.6mb 54f 51f
4:54 2 5 mph 1020.5mb 54f 51f
4:48 3 5 mph 1020.5mb 54f 51f
4:42 1 5 mph 1020.5mb 54f 51f
4:36 3 6 mph 1020.5mb 53f 51f
4:30 3 5 mph 1020.6mb 54f 52f
4:24 3 3 mph 1020.6mb 53f 51f
4:18 3 8 mph 1020.6mb 53f 51f
4:12 2 5 mph 1020.5mb 54f 52f
4:06 3 6 mph 1020.6mb 54f 52f
4:00 5 6 mph 1020.6mb 54f 52f
3:54 6 7 mph 1020.6mb 54f 52f
3:48 5 7 mph 1020.7mb 54f 52f
3:42 7 9 mph 1020.6mb 54f 52f
3:36 5 7 mph 1020.6mb 54f 52f
3:30 5 8 mph 1020.7mb 53f 52f
3:24 6 9 mph 1020.7mb 53f 52f
3:18 6 7 mph 1020.6mb 53f 52f
3:12 6 8 mph 1020.7mb 53f 52f
3:06 3 6 mph 1020.7mb 53f 52f
3:00 5 7 mph 1020.6mb 53f 52f
2:54 6 7 mph 1020.6mb 53f 52f
2:48 3 6 mph 1020.6mb 53f 53f
2:42 6 7 mph 1020.5mb 54f 52f
2:36 3 5 mph 1020.4mb 54f 53f
2:30 5 7 mph 1020.3mb 54f 52f
2:24 5 6 mph 1020.4mb 54f 53f
2:18 3 6 mph 1020.4mb 54f 53f
2:12 3 5 mph 1020.4mb 54f 53f
2:06 3 6 mph 1020.4mb 54f 53f
2:00 5 8 mph 1020.4mb 54f 52f
1:54 6 7 mph 1020.4mb 54f 52f
1:48 5 6 mph 1020.3mb 55f 53f
1:42 5 8 mph 1020.3mb 55f 53f
1:36 5 6 mph 1020.2mb 55f 53f
1:30 5 6 mph 1020.2mb 55f 53f
1:24 6 6 mph 1020.2mb 55f 52f
1:18 5 7 mph 1020.1mb 55f 52f
1:12 2 5 mph 1020.1mb 55f 52f
1:06 2 5 mph 1020.1mb 55f 52f
1:00 3 6 mph 1020.1mb 56f 52f
12:54 3 5 mph 1020mb 56f 52f
12:48  -  3 mph 1020mb 56f 52f
12:42 2 5 mph 1020mb 56f 52f
12:36 5 6 mph 1020.1mb 57f 52f
12:30 5 6 mph 1020mb 57f 52f
12:24 2 5 mph 1019.9mb 58f 52f
12:18 3 3 mph 1019.8mb 58f 52f
12:12 2 3 mph 1019.8mb 58f 52f
12:06 3 5 mph 1019.8mb 58f 52f
12:00 2 5 mph 1019.8mb 58f 52f
sam. 05/27 11:54 2 3 mph 1019.9mb 58f 52f
11:48 2 6 mph 1019.9mb 58f 52f
11:42 3 6 mph 1019.9mb 58f 52f
11:36 5 6 mph 1019.9mb 58f 51f
11:30 5 6 mph 1020mb 58f 51f
11:24 3 5 mph 1019.9mb 58f 51f
11:18 3 6 mph 1019.8mb 58f 51f
11:12 5 7 mph 1019.9mb 58f 51f
11:06 6 8 mph 1019.9mb 58f 51f
11:00 6 9 mph 1019.8mb 58f 51f
10:54 6 7 mph 1019.7mb 58f 51f
10:48 5 8 mph 1019.6mb 58f 51f
10:42 6 8 mph 1019.6mb 58f 51f
10:36 6 9 mph 1019.6mb 59f 51f
10:30 7 8 mph 1019.5mb 59f 51f
10:24 5 6 mph 1019.6mb 59f 51f
10:18 5 6 mph 1019.6mb 59f 51f
10:12 3 6 mph 1019.5mb 59f 51f
10:06 3 6 mph 1019.4mb 59f 51f
10:00 2 5 mph 1019.4mb 59f 51f
9:54 5 6 mph 1019.3mb 58f 51f
9:48 3 5 mph 1019.3mb 58f 51f
9:42 1 6 mph 1019.3mb 58f 51f
9:36 6 6 mph 1019.3mb 58f 51f
9:30 6 7 mph 1019.2mb 58f 51f
9:24 6 8 mph 1019.3mb 58f 51f
9:18 5 6 mph 1019.3mb 58f 52f
9:12 3 7 mph 1019.2mb 58f 51f
9:06 6 8 mph 1019.2mb 58f 52f
9:00 6 8 mph 1019.2mb 58f 52f
8:54 8 9 mph 1019.1mb 58f 52f
8:48 8 8 mph 1019.1mb 58f 52f
8:42 6 8 mph 1019.2mb 58f 52f
8:36 7 10 mph 1019.2mb 58f 52f
8:30 8 9 mph 1019.1mb 58f 52f
8:24 6 8 mph 1019.1mb 58f 53f
8:18 7 9 mph 1019.1mb 58f 53f
8:12 8 9 mph 1019mb 58f 53f
8:06 7 10 mph 1019mb 58f 53f
8:00 8 11 mph 1019mb 58f 53f
7:54 10 11 mph 1018.9mb 58f 53f
7:48 9 10 mph 1018.9mb 58f 54f
7:42 9 11 mph 1018.9mb 58f 54f
7:36 10 14 mph 1018.8mb 58f 55f
7:30 13 13 mph 1018.8mb 58f 54f
7:24 13 14 mph 1018.8mb 58f 55f
7:18 11 14 mph 1018.8mb 58f 55f
7:12 10 15 mph 1018.7mb 57f 55f
7:06 13 15 mph 1018.7mb 58f 55f
7:00 13 14 mph 1018.7mb 58f 56f
6:54 10 13 mph 1018.7mb 58f 56f
6:48 11 14 mph 1018.6mb 57f 56f
6:42 13 14 mph 1018.7mb 57f 56f
6:36 10 14 mph 1018.7mb 58f 56f
6:30 10 14 mph 1018.7mb 58f 56f
6:24 13 15 mph 1018.8mb 57f 56f
6:18 11 14 mph 1018.8mb 57f 56f
6:12 11 14 mph 1018.9mb 57f 56f
6:06 13 15 mph 1018.8mb 57f 56f
6:00 11 15 mph 1018.9mb 57f 57f
5:54 8 11 mph 1018.9mb 56f 59f
5:48 9 11 mph 1018.8mb 57f 59f
5:42 10 11 mph 1018.7mb 56f 59f
5:36 9 11 mph 1018.8mb 56f 59f
5:30 10 13 mph 1018.7mb 56f 59f
5:24 11 13 mph 1018.8mb 56f 59f
5:18 10 14 mph 1018.8mb 54f 59f
5:12 13 14 mph 1018.8mb 55f 58f
5:06 13 13 mph 1018.8mb 53f 58f
5:00 9 13 mph 1018.9mb 55f 59f
4:54 10 13 mph 1018.8mb 53f 58f
4:48 11 15 mph 1018.9mb 53f 57f
4:42 11 17 mph 1018.9mb 53f 57f
4:36 14 17 mph 1018.9mb 53f 56f
4:30 15 17 mph 1018.9mb 53f 56f
4:24 14 16 mph 1019mb 53f 56f
4:12 9 14 mph 1019mb 53f 57f
4:06 10 16 mph 1019mb 53f 56f
4:00 13 16 mph 1019.1mb 52f 56f
3:54 13 16 mph 1019.2mb 53f 55f
3:48 13 17 mph 1019.2mb 53f 55f
3:42 13 17 mph 1019.3mb 53f 55f
3:36 13 17 mph 1019.3mb 53f 55f
3:30 13 18 mph 1019.3mb 53f 55f
3:24 13 17 mph 1019.3mb 53f 55f
3:18 13 18 mph 1019.3mb 53f 54f
3:12 15 18 mph 1019.3mb 53f 54f
3:06 15 18 mph 1019.4mb 53f 54f
3:00 11 18 mph 1019.4mb 53f 55f
2:54 14 18 mph 1019.3mb 54f 55f
2:48 14 18 mph 1019.4mb 54f 54f
2:42 15 18 mph 1019.5mb 54f 54f
2:36 15 18 mph 1019.5mb 54f 54f
2:30 15 18 mph 1019.5mb 54f 53f
2:24 14 17 mph 1019.5mb 54f 53f
2:18 14 20 mph 1019.6mb 55f 53f
2:12 11 16 mph 1019.6mb 55f 53f
2:06 11 16 mph 1019.6mb 55f 53f
2:00 13 17 mph 1019.6mb 56f 53f
1:54 13 16 mph 1019.6mb 56f 54f
1:48 11 16 mph 1019.6mb 56f 53f
1:42 10 15 mph 1019.6mb 56f 53f
1:36 10 15 mph 1019.6mb 56f 53f
1:30 11 16 mph 1019.6mb 57f 53f
1:24 14 16 mph 1019.7mb 57f 52f
1:18 11 15 mph 1019.6mb 57f 53f
1:12 10 14 mph 1019.7mb 57f 53f
1:06 8 13 mph 1019.7mb 58f 53f
1:00 9 13 mph 1019.7mb 58f 53f
12:54 10 14 mph 1019.8mb 58f 53f
12:48 10 14 mph 1019.8mb 58f 53f
12:42 9 13 mph 1019.7mb 58f 53f
12:36 9 11 mph 1019.8mb 58f 53f
12:30 8 10 mph 1019.9mb 58f 53f
12:24 7 10 mph 1019.9mb 58f 53f
12:18 7 10 mph 1019.9mb 58f 53f
12:12 7 10 mph 1019.9mb 58f 53f
12:06 7 9 mph 1019.9mb 58f 53f
12:00 7 8 mph 1019.9mb 58f 53f
11:54 6 8 mph 1019.8mb 58f 53f
11:48 3 7 mph 1019.9mb 58f 54f
11:42 6 7 mph 1019.9mb 58f 53f
11:36 5 7 mph 1019.9mb 58f 52f
11:30 5 6 mph 1019.9mb 59f 52f
11:24 5 7 mph 1019.9mb 59f 52f
11:18 5 6 mph 1019.9mb 59f 52f
11:12 3 7 mph 1019.9mb 58f 52f
11:06 3 6 mph 1019.9mb 58f 52f
11:00 3 8 mph 1019.9mb 58f 52f
10:54 3 6 mph 1019.9mb 58f 53f
10:48 3 5 mph 1019.9mb 58f 53f
10:42 6 7 mph 1019.9mb 58f 52f
10:36 5 6 mph 1019.9mb 58f 52f
10:30 3 6 mph 1019.8mb 58f 52f
10:24 6 7 mph 1019.8mb 58f 52f
10:18 3 7 mph 1019.8mb 58f 52f
10:12 2 6 mph 1019.8mb 58f 52f
10:06 6 8 mph 1019.8mb 58f 51f
10:00 2 6 mph 1019.8mb 58f 52f
9:54 6 7 mph 1019.7mb 57f 51f
9:48 3 6 mph 1019.7mb 53f 51f
9:42 3 6 mph 1019.7mb 53f 51f
9:36 6 6 mph 1019.7mb 53f 51f
9:30 5 8 mph 1019.7mb 53f 51f
9:24 3 6 mph 1019.6mb 53f 51f
9:18 5 7 mph 1019.7mb 53f 51f
9:12 5 8 mph 1019.6mb 53f 51f
9:06 3 7 mph 1019.6mb 53f 51f
9:00 5 7 mph 1019.5mb 53f 51f
8:54 6 6 mph 1019.4mb 53f 52f
8:48 6 8 mph 1019.4mb 53f 51f
8:42 7 8 mph 1019.4mb 53f 51f
8:36 6 8 mph 1019.3mb 53f 52f
8:30 3 5 mph 1019.2mb 53f 52f
8:24  -  5 mph 1019mb 53f 52f
8:18 3 6 mph 1019mb 53f 51f
8:12 6 7 mph 1019mb 54f 51f
8:06 2 3 mph 1019mb 56f 51f
8:00 3 5 mph 1018.9mb 56f 51f
7:54 2 3 mph 1018.8mb 56f 51f
7:48 2 3 mph 1018.7mb 56f 51f
7:42 2 3 mph 1018.6mb 56f 51f
7:36 2 3 mph 1018.6mb 56f 51f
7:30 2 3 mph 1018.6mb 56f 51f
7:24 2 2 mph 1018.5mb 56f 51f
7:18 1 2 mph 1018.5mb 56f 51f
7:12  -  2 mph 1018.4mb 56f 51f
7:06 2 5 mph 1018.4mb 56f 51f
7:00 2 3 mph 1018.3mb 56f 51f
6:54 1 2 mph 1018.3mb 56f 51f
6:48 2 3 mph 1018.2mb 56f 51f
6:42 2 2 mph 1018.2mb 56f 51f
6:36 1 5 mph 1018.1mb 56f 51f
6:30  -  2 mph 1018.1mb 56f 51f
6:24  -  3 mph 1018mb 56f 51f
6:18 2 5 mph 1018mb 56f 51f
6:12 2 5 mph 1018mb 56f 51f
6:06 3 5 mph 1018mb 56f 51f
6:00 2 5 mph 1017.9mb 56f 51f
5:54 3 3 mph 1017.9mb 56f 51f
5:48 2 2 mph 1017.9mb 56f 51f
5:42  -  1 mph 1017.9mb 56f 51f
5:36  -  1 mph 1017.8mb 56f 51f
5:30  -  2 mph 1017.8mb 56f 51f
5:24 2 2 mph 1017.7mb 55f 51f
5:18 1 3 mph 1017.7mb 55f 51f
5:12 3 5 mph 1017.7mb 55f 51f
5:06 2 5 mph 1017.7mb 55f 51f
5:00 1 2 mph 1017.7mb 55f 51f
4:54  -  5 mph 1017.7mb 55f 51f
4:48 3 5 mph 1017.7mb 55f 51f
4:42 2 6 mph 1017.7mb 55f 51f
4:36 3 5 mph 1017.6mb 55f 51f
4:30 2 3 mph 1017.6mb 55f 51f
4:24 1 3 mph 1017.5mb 56f 51f
4:18 2 3 mph 1017.6mb 56f 52f
4:12 1 2 mph 1017.6mb 55f 51f
4:06  -  3 mph 1017.6mb 55f 51f
4:00 3 5 mph 1017.6mb 55f 51f
3:54 3 5 mph 1017.6mb 55f 51f
3:48 3 3 mph 1017.6mb 55f 52f
3:42  -  2 mph 1017.6mb 54f 52f
3:36 2 3 mph 1017.6mb 55f 51f
3:30 3 5 mph 1017.6mb 55f 52f
3:24 5 6 mph 1017.7mb 54f 52f
3:18 6 6 mph 1017.7mb 54f 52f
3:12 3 6 mph 1017.7mb 54f 52f
3:06 5 6 mph 1017.7mb 54f 52f
3:00 5 6 mph 1017.6mb 54f 52f
2:54 6 6 mph 1017.6mb 54f 52f
2:48 5 7 mph 1017.6mb 54f 52f
2:42 6 8 mph 1017.6mb 54f 52f
2:36 6 8 mph 1017.6mb 54f 52f
2:30 5 8 mph 1017.5mb 54f 52f
2:24 6 8 mph 1017.5mb 54f 52f
2:18 6 7 mph 1017.5mb 54f 52f
2:12 5 7 mph 1017.4mb 54f 52f
2:06 7 8 mph 1017.4mb 54f 52f
2:00 5 6 mph 1017.4mb 54f 52f
1:54 5 7 mph 1017.3mb 54f 52f
1:48 2 3 mph 1017.3mb 54f 52f
1:42 3 5 mph 1017.3mb 54f 52f
1:36 3 6 mph 1017.2mb 54f 52f
1:30 5 7 mph 1017.2mb 55f 52f
1:24 6 7 mph 1017.3mb 55f 53f
1:18 6 6 mph 1017.3mb 55f 53f
1:12 6 6 mph 1017.2mb 55f 53f
1:06 6 6 mph 1017.2mb 55f 52f
1:00 5 6 mph 1017.2mb 55f 52f
12:54 6 6 mph 1017.2mb 55f 53f
12:48 6 6 mph 1017.2mb 55f 52f
12:42 5 6 mph 1017.2mb 55f 52f
12:36 5 6 mph 1017.2mb 55f 53f
12:30 3 5 mph 1017.2mb 55f 53f
12:24 3 5 mph 1017.2mb 55f 53f
12:18 3 5 mph 1017.1mb 55f 52f
12:12 5 5 mph 1017.1mb 55f 53f
12:06 5 5 mph 1017.1mb 55f 53f
12:00 3 3 mph 1017.1mb 56f 53f
ven. 05/26 11:54 2 3 mph 1017.1mb 57f 53f
11:48 2 3 mph 1017.1mb 57f 53f
11:42 2 5 mph - - -
11:36 3 5 mph - - -
11:30 3 5 mph 1017mb 57f 54f
11:24 5 5 mph 1017mb 57f 54f
11:18 5 6 mph 1017mb 58f 54f
11:12 5 6 mph 1017mb 59f 54f
11:06 6 6 mph 1017mb 59f 54f
11:00 6 7 mph 1016.9mb 59f 54f
10:54 6 6 mph 1016.9mb 59f 53f
10:48 6 7 mph 1016.9mb 59f 53f
10:42 6 6 mph 1016.9mb 59f 53f
10:36 6 7 mph 1016.9mb 59f 54f
10:30 6 6 mph 1016.9mb 59f 55f
10:24 6 6 mph 1016.9mb 59f 54f
10:18 5 6 mph 1016.9mb 60f 55f
10:12 6 6 mph 1016.9mb 61f 56f
10:06 6 6 mph 1016.9mb 61f 56f
10:00 6 6 mph 1016.9mb 61f 56f
9:54 6 7 mph 1016.8mb 60f 57f
9:48 6 6 mph 1016.8mb 61f 57f
9:42 6 8 mph 1016.7mb 61f 57f
9:36 6 6 mph 1016.6mb 61f 57f
9:30 5 6 mph 1016.6mb 61f 58f
9:24 5 6 mph 1016.5mb 61f 58f
9:18 5 6 mph 1016.5mb 61f 58f
9:12 5 8 mph 1016.4mb 61f 59f
9:06 5 8 mph 1016.4mb 61f 59f
9:00 6 7 mph 1016.3mb 61f 59f
8:54 6 7 mph 1016.3mb 61f 60f
8:48 5 6 mph 1016.2mb 61f 60f
8:42 5 6 mph 1016.2mb 61f 61f
8:36 5 7 mph 1016.1mb 60f 61f
8:30 6 7 mph 1016.1mb 60f 62f
8:24 7 8 mph 1016mb 60f 62f
8:18 7 8 mph 1016mb 60f 62f
8:12 8 9 mph 1016mb 60f 62f
8:06 8 11 mph 1016mb 60f 63f
8:00 8 10 mph 1016mb 60f 63f
7:54 6 10 mph 1016mb 60f 64f
7:48 6 10 mph 1016mb 60f 64f
7:42 3 5 mph 1015.9mb 61f 65f
7:36 3 6 mph 1015.9mb 61f 64f
7:30 5 7 mph 1015.8mb 60f 64f
7:24 6 8 mph 1015.8mb 60f 65f
7:18 6 9 mph 1015.8mb 60f 65f
7:12 7 10 mph 1015.8mb 60f 65f
7:06 5 8 mph 1015.7mb 60f 66f
7:00 6 9 mph 1015.6mb 60f 66f
6:54 8 11 mph 1015.6mb 60f 65f
6:48 8 11 mph 1015.6mb 60f 66f
6:42 8 13 mph 1015.5mb 60f 66f
6:36 10 14 mph 1015.6mb 60f 66f
6:30 13 16 mph 1015.5mb 60f 66f
6:24 13 16 mph 1015.4mb 60f 66f
6:18 13 15 mph 1015.4mb 60f 67f
6:12 11 14 mph 1015.4mb 60f 67f
6:06 10 18 mph 1015.3mb 60f 67f
6:00 14 18 mph 1015.3mb 59f 67f
5:54 16 20 mph 1015.2mb 59f 67f
5:48 15 17 mph 1015.2mb 59f 67f
5:42 15 20 mph 1015.2mb 59f 68f
5:36 17 20 mph 1015.2mb 59f 68f
5:30 14 18 mph 1015.2mb 59f 67f
5:24 14 16 mph 1015.3mb 59f 67f
5:18 14 16 mph 1015.3mb 59f 67f
5:12 11 15 mph 1015.3mb 59f 68f
5:06 10 13 mph 1015.3mb 59f 68f
5:00 8 13 mph 1015.3mb 59f 68f
4:54 8 11 mph 1015.4mb 59f 67f
4:48 8 11 mph 1015.4mb 59f 67f
4:42 10 17 mph 1015.4mb 58f 67f
4:36 15 20 mph 1015.3mb 58f 67f
4:30 15 20 mph 1015.3mb 58f 67f
4:24 15 20 mph 1015.2mb 57f 68f
4:18 13 20 mph 1015.2mb 55f 68f
4:12 15 17 mph 1015.1mb 56f 68f
4:06 14 17 mph 1015.1mb 54f 68f
4:00 11 14 mph 1015.2mb 53f 69f
3:54 14 18 mph 1015.1mb 53f 68f
3:48 14 18 mph 1015.1mb 53f 69f
3:42 16 20 mph 1015.1mb 53f 68f
3:36 15 20 mph 1015.1mb 53f 68f
3:30 9 14 mph 1015.1mb 53f 69f
3:24 11 14 mph 1015.2mb 53f 68f
3:18 13 17 mph 1015.2mb 53f 67f
3:12 15 17 mph 1015.2mb 53f 67f
3:06 15 17 mph 1015.2mb 53f 67f
3:00 16 18 mph 1015.2mb 53f 67f
2:54 15 17 mph 1015.2mb 53f 67f
2:48 15 17 mph 1015.1mb 53f 67f
2:42 16 20 mph 1015.1mb 53f 67f
2:36 16 18 mph 1015.1mb 53f 67f
2:30 13 16 mph 1015.1mb 53f 67f
2:24 14 16 mph 1015.1mb 53f 66f
2:18 14 16 mph 1015.1mb 53f 66f
2:12 15 18 mph 1015mb 53f 66f
2:06 16 17 mph 1015mb 53f 67f
2:00 14 16 mph 1015mb 53f 67f
1:54 13 16 mph 1015mb 53f 67f
1:48 11 15 mph 1015mb 53f 67f
1:42 13 16 mph 1014.9mb 54f 67f
1:36 13 14 mph 1014.9mb 54f 67f
1:30 13 16 mph 1014.9mb 54f 67f
1:24 15 16 mph 1014.9mb 54f 67f
1:18 14 17 mph 1014.9mb 55f 67f
1:12 14 16 mph 1014.9mb 55f 67f
1:06 14 15 mph 1014.9mb 55f 67f
1:00 14 16 mph 1014.9mb 55f 68f
12:54 14 15 mph 1014.9mb 55f 68f
12:48 13 16 mph 1015mb 55f 68f
12:42 13 15 mph 1014.9mb 55f 69f
12:36 10 13 mph 1014.9mb 56f 69f
12:30 8 11 mph 1014.9mb 56f 70f
12:24 9 10 mph 1014.9mb 56f 70f
12:18 9 11 mph 1014.9mb 56f 69f
12:12 10 11 mph 1014.9mb 56f 69f
12:06 8 10 mph 1014.9mb 56f 69f
12:00 8 10 mph 1014.9mb 57f 69f
11:54 7 9 mph 1014.9mb 57f 68f
11:48 9 13 mph 1014.9mb 57f 67f
11:42 8 13 mph 1014.8mb 57f 66f
11:36 10 11 mph 1014.8mb 57f 66f
11:30 9 11 mph 1014.8mb 57f 66f
11:24 8 10 mph 1014.8mb 57f 66f
11:18 9 10 mph 1014.7mb 57f 66f
11:12 6 7 mph 1014.7mb 58f 67f
11:06 6 8 mph 1014.7mb 58f 66f
11:00 7 9 mph 1014.7mb 57f 65f
10:54 7 8 mph 1014.7mb 58f 65f
10:48 2 3 mph 1014.7mb 58f 67f
10:42 1 2 mph 1014.7mb 58f 68f
10:36  -  2 mph 1014.8mb 58f 67f
10:30  -  2 mph 1014.7mb 58f 67f
10:24 2 3 mph 1014.7mb 58f 65f
10:18 3 5 mph 1014.7mb 58f 64f
10:12 5 6 mph 1014.7mb 57f 63f
10:06 5 6 mph 1014.7mb 57f 63f
10:00 3 6 mph 1014.7mb 57f 62f
9:54 3 6 mph 1014.7mb 57f 62f
9:48 5 5 mph 1014.7mb 57f 61f
9:42 5 6 mph 1014.6mb 58f 61f
9:36 5 6 mph 1014.6mb 57f 60f
9:30 3 5 mph 1014.6mb 57f 60f
9:24 3 3 mph 1014.6mb 57f 58f
9:18 3 5 mph 1014.6mb 57f 58f
9:12 3 5 mph 1014.6mb 58f 57f
9:06 3 5 mph 1014.6mb 58f 57f
9:00 3 5 mph 1014.5mb 56f 56f
8:54 5 6 mph 1014.5mb 54f 56f
8:48 3 6 mph 1014.5mb 54f 56f
8:42 5 6 mph 1014.5mb 53f 55f
8:36 5 6 mph 1014.5mb 53f 55f
8:30 6 7 mph 1014.5mb 53f 54f
8:24 6 6 mph 1014.5mb 52f 54f
8:18 5 6 mph 1014.5mb 52f 53f
8:12 5 6 mph 1014.5mb 52f 53f
8:06 6 6 mph 1014.5mb 52f 53f
8:00 5 6 mph 1014.5mb 52f 53f
7:54 5 7 mph 1014.5mb 52f 52f
7:48 6 7 mph 1014.4mb 52f 52f
7:42 6 7 mph 1014.4mb 52f 51f
7:36 6 7 mph 1014.4mb 52f 51f
7:30 6 8 mph 1014.4mb 52f 51f
7:24 7 8 mph 1014.3mb 54f 51f
7:18 6 7 mph 1014.3mb 55f 51f
7:12 6 7 mph 1014.2mb 55f 51f
7:06 5 6 mph 1014.2mb 55f 51f
7:00 5 6 mph 1014.1mb 55f 51f
6:54 5 6 mph 1014.1mb 55f 51f
6:48 3 3 mph 1014.1mb 55f 51f
6:42 2 3 mph 1014mb 55f 51f
6:36 3 6 mph 1014mb 55f 51f
6:30 5 7 mph 1014mb 55f 50f
6:24 7 8 mph 1013.9mb 55f 50f
6:18 7 9 mph 1013.9mb 55f 50f
6:12 7 9 mph 1013.9mb 55f 50f
6:06 8 9 mph 1013.8mb 55f 50f
6:00 8 9 mph 1013.7mb 55f 50f
5:54 7 8 mph 1013.6mb 55f 50f
5:48 7 8 mph 1013.6mb 55f 50f
5:42 6 7 mph 1013.5mb 55f 50f
5:36 6 7 mph 1013.5mb 55f 49f
5:30 6 7 mph 1013.5mb 55f 50f
5:24 5 6 mph 1013.5mb 55f 50f
5:18 3 6 mph 1013.5mb 55f 50f
5:12 3 5 mph 1013.5mb 55f 50f
5:06 5 6 mph 1013.4mb 55f 50f
5:00 5 6 mph 1013.4mb 55f 49f
4:54 3 6 mph 1013.4mb 55f 49f
4:48 3 5 mph 1013.4mb 55f 50f
4:42 5 6 mph 1013.4mb 55f 50f
4:36 6 8 mph 1013.4mb 55f 50f
4:30 7 8 mph 1013.4mb 55f 49f
4:24 7 8 mph 1013.4mb 55f 50f
4:18 7 7 mph 1013.4mb 55f 49f
4:12 7 8 mph 1013.5mb 55f 49f
4:06 8 9 mph 1013.5mb 55f 50f
4:00 7 8 mph 1013.5mb 55f 50f
3:54 7 7 mph 1013.5mb 55f 50f
3:48 5 7 mph 1013.5mb 55f 50f
3:42 6 8 mph 1013.5mb 55f 50f
3:36 6 8 mph 1013.5mb 55f 50f
3:30 7 8 mph 1013.5mb 55f 50f
3:24 6 7 mph 1013.5mb 55f 50f
3:18 7 8 mph 1013.5mb 55f 50f
3:12 7 8 mph 1013.4mb 55f 50f
3:06 8 9 mph 1013.4mb 55f 50f
3:00 8 9 mph 1013.4mb 54f 49f
2:54 8 8 mph 1013.4mb 54f 50f
2:48 8 8 mph 1013.4mb 54f 50f
2:42 7 7 mph 1013.4mb 54f 50f
2:36 6 6 mph 1013.3mb 53f 50f
2:30 5 6 mph 1013.3mb 53f 50f
2:24 5 6 mph 1013.3mb 53f 50f
2:18 6 6 mph 1013.3mb 53f 50f
2:12 3 6 mph 1013.3mb 53f 51f
2:06 2 6 mph 1013.2mb 53f 51f
2:00 6 6 mph 1013.3mb 53f 51f
1:54 5 6 mph 1013.2mb 53f 50f
1:48 6 7 mph 1013.2mb 53f 50f
1:42 6 7 mph 1013.2mb 53f 49f
1:36 6 6 mph 1013.2mb 53f 49f
1:30 6 7 mph 1013.2mb 53f 50f
1:24 6 7 mph 1013.1mb 53f 50f
1:18 6 7 mph 1013.1mb 53f 50f
1:12 5 6 mph 1013.2mb 53f 50f
1:06 5 6 mph 1013.3mb 53f 50f
1:00 2 3 mph 1013.3mb 53f 50f
12:54 2 6 mph 1013.3mb 53f 50f
12:48 5 6 mph 1013.3mb 53f 50f
12:42 5 6 mph 1013.3mb 54f 50f
12:36 5 6 mph 1013.3mb 54f 51f
12:30 5 5 mph 1013.2mb 54f 51f
12:24 3 5 mph 1013.1mb 54f 51f
12:18 2 3 mph 1013.2mb 54f 51f
12:12 2 2 mph 1013.1mb 54f 51f
12:06 1 2 mph 1013.1mb 54f 51f
12:00 2 2 mph 1013.1mb 54f 51f
jeu. 05/25 11:54 1 2 mph 1013mb 54f 52f
11:48 1 2 mph 1012.9mb 54f 52f
11:42  -  1 mph 1012.9mb 54f 52f
11:36 1 2 mph 1013mb 55f 52f
11:30  -  1 mph 1012.9mb 55f 52f
11:24  -  2 mph 1013mb 56f 52f
11:18  -  2 mph 1013mb 56f 52f
11:12  -  3 mph 1013mb 56f 52f
11:06  -  2 mph 1013mb 57f 52f
11:00  -  1 mph 1013mb 57f 52f
10:54  -  2 mph 1012.9mb 58f 52f
10:48  -  2 mph 1013mb 58f 52f
10:42 2 2 mph 1013mb 59f 52f
10:36 1 3 mph 1012.9mb 59f 52f
10:30 3 5 mph 1012.9mb 58f 52f
10:24 3 6 mph 1012.9mb 59f 52f
10:18 3 5 mph 1012.9mb 59f 52f
10:12 5 6 mph 1012.8mb 59f 53f
10:06 5 6 mph 1012.9mb 59f 53f
10:00 6 6 mph 1012.8mb 59f 53f
9:54 3 6 mph 1012.8mb 59f 53f
9:48 5 7 mph 1012.8mb 59f 53f
9:42 3 7 mph 1012.7mb 59f 53f
9:36 6 8 mph 1012.6mb 59f 53f
9:30 7 7 mph 1012.5mb 59f 53f
9:24 6 8 mph 1012.5mb 59f 53f
9:18 7 9 mph 1012.4mb 59f 53f
9:12 8 8 mph 1012.3mb 60f 53f
9:06 6 8 mph 1012.3mb 60f 53f
9:00 6 8 mph 1012.2mb 60f 54f
8:54 7 8 mph 1012.1mb 60f 55f
8:48 6 7 mph 1012.1mb 60f 55f
8:42 6 8 mph 1011.9mb 60f 56f
8:36 7 8 mph 1011.8mb 60f 56f
8:30 7 8 mph 1011.8mb 60f 56f
8:24 6 8 mph 1011.8mb 60f 57f
8:18 6 8 mph 1011.8mb 59f 57f
8:12 8 9 mph 1011.8mb 59f 57f
8:06 8 9 mph 1011.7mb 59f 57f
8:00 8 10 mph 1011.7mb 59f 57f
7:54 10 11 mph 1011.7mb 59f 57f
7:48 5 7 mph 1011.6mb 59f 58f
7:42 6 8 mph 1011.6mb 59f 58f
7:36 7 9 mph 1011.6mb 59f 58f
7:30 10 11 mph 1011.5mb 59f 58f
7:24 8 10 mph 1011.5mb 59f 58f
7:18 8 10 mph 1011.5mb 58f 58f
7:12 9 11 mph 1011.5mb 59f 58f
7:06 8 10 mph 1011.5mb 59f 58f
7:00 8 11 mph 1011.5mb 60f 58f
6:54 9 11 mph 1011.5mb 59f 58f
6:48 9 13 mph 1011.5mb 59f 58f
6:42 10 14 mph 1011.5mb 59f 58f
6:36 8 14 mph 1011.4mb 59f 58f
6:30 11 14 mph 1011.4mb 59f 58f
6:24 11 14 mph 1011.4mb 59f 58f
6:18 10 14 mph 1011.4mb 59f 58f
6:12 10 14 mph 1011.4mb 59f 58f
6:06 11 14 mph 1011.4mb 59f 58f
6:00 11 17 mph 1011.4mb 59f 58f
5:54 14 16 mph 1011.4mb 59f 58f
5:48 14 17 mph 1011.4mb 59f 58f
5:42 14 17 mph 1011.4mb 59f 58f
5:36 13 15 mph 1011.4mb 59f 58f
5:30 10 15 mph 1011.3mb 59f 59f
5:24 10 14 mph 1011.3mb 59f 59f
5:18 13 15 mph 1011.3mb 59f 59f
5:12 11 15 mph 1011.4mb 58f 59f
5:06 13 15 mph 1011.4mb 58f 58f
5:00 11 16 mph 1011.4mb 58f -
4:54 14 17 mph 1011.4mb 58f 58f
4:48 14 16 mph 1011.5mb 58f 58f
4:42 15 17 mph 1011.5mb 58f 58f
4:36 14 16 mph 1011.5mb 57f 58f
4:30 13 16 mph 1011.6mb 57f 58f
4:24 13 17 mph 1011.6mb 57f 58f
4:18 13 17 mph 1011.7mb 57f 58f
4:12 13 16 mph 1011.7mb 57f 58f
4:06 14 17 mph 1011.8mb 57f 58f
4:00 15 18 mph 1011.8mb 57f 58f
3:54 15 18 mph 1011.9mb 56f 58f
3:48 13 17 mph 1011.9mb 56f 58f
3:42 14 17 mph 1012mb 56f 58f
3:36 13 16 mph 1012.1mb 56f 58f
3:30 14 17 mph 1012.1mb 54f 58f